createdAt,value
2022-11-09T00:05:05.588Z,6.45
2022-11-09T00:10:12.337Z,6.41
2022-11-09T00:15:18.765Z,6.39
2022-11-09T00:20:26.503Z,6.44
2022-11-09T00:25:33.027Z,6.46
2022-11-09T00:30:39.206Z,6.48
2022-11-09T00:35:46.800Z,6.47
2022-11-09T00:40:53.065Z,6.48
2022-11-09T00:45:59.805Z,6.50
2022-11-09T00:51:08.409Z,6.52
2022-11-09T00:56:15.087Z,6.50
2022-11-09T01:01:21.538Z,6.47
2022-11-09T01:06:29.470Z,6.48
2022-11-09T01:11:36.590Z,6.48
2022-11-09T01:16:42.935Z,6.50
2022-11-09T01:21:51.122Z,6.48
2022-11-09T01:26:57.511Z,6.48
2022-11-09T01:32:05.168Z,6.46
2022-11-09T01:37:12.885Z,6.45
2022-11-09T01:42:26.150Z,6.41
2022-11-09T01:47:32.640Z,6.40
2022-11-09T01:52:44.104Z,6.38
2022-11-09T01:57:59.586Z,6.36
2022-11-09T02:03:11.372Z,6.33
2022-11-09T02:08:25.827Z,6.30
2022-11-09T02:13:33.822Z,6.27
2022-11-09T02:18:53.805Z,6.23
2022-11-09T02:24:04.543Z,6.24
2022-11-09T02:29:18.295Z,6.25
2022-11-09T02:34:26.196Z,6.25
2022-11-09T02:39:34.492Z,6.28
2022-11-09T02:44:45.529Z,6.27
2022-11-09T02:49:52.345Z,6.26
2022-11-09T02:55:01.113Z,6.28
2022-11-09T03:00:10.845Z,6.30
2022-11-09T03:05:18.142Z,6.30
2022-11-09T03:10:26.286Z,6.29
2022-11-09T03:15:32.538Z,6.29
2022-11-09T03:20:39.286Z,6.31
2022-11-09T03:25:48.197Z,6.23
2022-11-09T03:30:54.913Z,6.26
2022-11-09T03:36:01.623Z,6.25
2022-11-09T03:41:10.042Z,6.22
2022-11-09T03:46:16.566Z,6.16
2022-11-09T03:51:22.624Z,6.13
2022-11-09T03:56:30.812Z,6.08
2022-11-09T04:01:36.879Z,6.04
2022-11-09T04:06:43.042Z,6.07
2022-11-09T04:11:50.784Z,6.07
2022-11-09T04:16:56.906Z,6.10
2022-11-09T04:22:03.057Z,6.07
2022-11-09T04:27:10.599Z,6.00
2022-11-09T04:32:16.854Z,5.94
2022-11-09T04:37:22.958Z,5.96
2022-11-09T04:42:30.400Z,5.97
2022-11-09T04:47:36.465Z,5.95
2022-11-09T04:52:42.805Z,5.88
2022-11-09T04:57:50.373Z,5.83
2022-11-09T05:02:56.629Z,5.76
2022-11-09T05:08:02.988Z,5.75
2022-11-09T05:13:14.462Z,5.80
2022-11-09T05:18:20.742Z,5.66
2022-11-09T05:23:44.037Z,5.64
2022-11-09T05:28:53.019Z,5.65
2022-11-09T05:33:59.752Z,5.56
2022-11-09T05:39:05.983Z,5.58
2022-11-09T05:44:13.659Z,5.53
2022-11-09T05:49:19.977Z,5.55
2022-11-09T05:54:25.994Z,5.57
2022-11-09T05:59:33.450Z,5.60
2022-11-09T06:04:39.793Z,5.53
2022-11-09T06:09:46.197Z,5.50
2022-11-09T06:14:53.758Z,5.46
2022-11-09T06:20:00.628Z,5.55
2022-11-09T06:25:07.871Z,5.59
2022-11-09T06:30:16.432Z,5.66
2022-11-09T06:35:22.693Z,5.68
2022-11-09T06:40:29.454Z,5.73
2022-11-09T06:45:37.507Z,5.79
2022-11-09T06:50:43.761Z,5.86
2022-11-09T06:55:51.061Z,5.96
2022-11-09T07:00:59.192Z,6.08
2022-11-09T07:06:09.037Z,6.15
2022-11-09T07:11:17.857Z,6.23
2022-11-09T07:16:25.460Z,6.35
2022-11-09T07:21:31.769Z,6.45
2022-11-09T07:26:37.901Z,6.49
2022-11-09T07:31:45.671Z,6.60
2022-11-09T07:36:54.369Z,6.68
2022-11-09T07:42:00.708Z,6.77
2022-11-09T07:47:08.572Z,6.91
2022-11-09T07:52:15.462Z,7.00
2022-11-09T07:57:21.751Z,7.17
2022-11-09T08:02:29.385Z,7.19
2022-11-09T08:07:35.545Z,7.33
2022-11-09T08:12:42.513Z,7.37
2022-11-09T08:17:50.147Z,7.54
2022-11-09T08:23:00.897Z,7.57
2022-11-09T08:28:14.562Z,7.63
2022-11-09T08:33:23.099Z,7.68
2022-11-09T08:38:29.286Z,7.80
2022-11-09T08:43:35.642Z,7.88
2022-11-09T08:48:43.172Z,7.96
2022-11-09T08:53:49.332Z,8.01
2022-11-09T08:58:55.463Z,8.10
2022-11-09T09:04:03.810Z,8.23
2022-11-09T09:09:10.219Z,8.29
2022-11-09T09:14:17.331Z,8.35
2022-11-09T09:19:25.075Z,8.48
2022-11-09T09:24:32.342Z,8.53
2022-11-09T09:29:38.432Z,8.61
2022-11-09T09:34:45.956Z,8.65
2022-11-09T09:39:52.422Z,8.81
2022-11-09T09:45:04.346Z,8.86
2022-11-09T09:50:19.152Z,8.92
2022-11-09T09:55:31.357Z,9.14
2022-11-09T10:00:39.809Z,9.24
2022-11-09T10:05:57.715Z,9.28
2022-11-09T10:11:18.456Z,9.31
2022-11-09T10:16:35.256Z,9.34
2022-11-09T10:21:51.218Z,9.37
2022-11-09T10:27:00.610Z,9.43
2022-11-09T10:32:21.147Z,9.53
2022-11-09T10:37:36.989Z,9.53
2022-11-09T10:42:47.689Z,9.53
2022-11-09T10:48:13.525Z,9.64
2022-11-09T10:53:39.301Z,9.75
2022-11-09T10:59:04.652Z,9.80
2022-11-09T11:04:30.331Z,9.88
2022-11-09T11:09:56.744Z,9.95
2022-11-09T11:15:27.321Z,9.98
2022-11-09T11:21:18.500Z,10.03
2022-11-09T11:26:55.517Z,10.06
2022-11-09T11:32:22.594Z,10.00
2022-11-09T11:38:02.526Z,10.14
2022-11-09T11:43:46.398Z,10.30
2022-11-09T11:49:55.025Z,10.38
2022-11-09T11:55:40.117Z,10.43
2022-11-09T12:01:34.624Z,10.55
2022-11-09T12:07:24.963Z,10.62
2022-11-09T12:13:01.837Z,10.62
2022-11-09T12:18:44.298Z,10.62
2022-11-09T12:24:23.777Z,10.64
2022-11-09T12:29:59.383Z,10.73
2022-11-09T12:35:38.462Z,10.81
2022-11-09T12:41:09.457Z,10.84
2022-11-09T12:46:40.248Z,10.88
2022-11-09T12:52:08.246Z,10.89
2022-11-09T12:57:34.278Z,10.92
2022-11-09T13:03:02.035Z,10.92
2022-11-09T13:08:30.619Z,10.86
2022-11-09T13:14:38.966Z,10.88
2022-11-09T13:20:03.718Z,10.86
2022-11-09T13:25:54.294Z,10.85
2022-11-09T13:32:05.102Z,10.81
2022-11-09T13:37:58.318Z,10.77
2022-11-09T13:43:28.512Z,10.74
2022-11-09T13:48:54.555Z,10.73
2022-11-09T13:54:35.219Z,10.73
2022-11-09T14:00:04.216Z,10.71
2022-11-09T14:05:31.696Z,10.66
2022-11-09T14:11:46.926Z,10.63
2022-11-09T14:17:22.895Z,10.57
2022-11-09T14:22:47.472Z,10.52
2022-11-09T14:28:24.232Z,10.47
2022-11-09T14:34:02.472Z,10.44
2022-11-09T14:39:32.575Z,10.36
2022-11-09T14:44:57.290Z,10.26
2022-11-09T14:50:26.656Z,10.20
2022-11-09T14:55:53.291Z,10.14
2022-11-09T15:01:25.846Z,10.06
2022-11-09T15:06:56.752Z,9.96
2022-11-09T15:12:23.705Z,9.89
2022-11-09T15:17:48.938Z,9.83
2022-11-09T15:23:39.426Z,9.77
2022-11-09T15:29:25.085Z,9.66
2022-11-09T15:34:57.802Z,9.62
2022-11-09T15:40:26.740Z,9.55
2022-11-09T15:45:51.986Z,9.50
2022-11-09T15:51:18.173Z,9.38
2022-11-09T15:56:45.104Z,9.33
2022-11-09T16:02:12.945Z,9.30
2022-11-09T16:07:38.649Z,9.28
2022-11-09T16:13:06.840Z,9.15
2022-11-09T16:18:32.659Z,9.13
2022-11-09T16:23:58.798Z,9.14
2022-11-09T16:29:28.800Z,9.04
2022-11-09T16:35:15.396Z,8.99
2022-11-09T16:40:40.793Z,8.86
2022-11-09T16:46:08.059Z,8.82
2022-11-09T16:51:33.235Z,8.74
2022-11-09T16:56:58.645Z,8.56
2022-11-09T17:02:27.114Z,8.60
2022-11-09T17:07:52.484Z,8.55
2022-11-09T17:13:18.295Z,8.52
2022-11-09T17:18:45.035Z,8.54
2022-11-09T17:24:11.075Z,8.57
2022-11-09T17:29:40.031Z,8.57
2022-11-09T17:35:07.997Z,8.60
2022-11-09T17:40:33.677Z,8.56
2022-11-09T17:45:59.025Z,8.51
2022-11-09T17:51:26.541Z,8.52
2022-11-09T17:56:52.393Z,8.54
2022-11-09T18:02:19.101Z,8.54
2022-11-09T18:07:46.621Z,8.53
2022-11-09T18:13:12.733Z,8.49
2022-11-09T18:18:39.086Z,8.49
2022-11-09T18:24:06.705Z,8.48
2022-11-09T18:29:33.004Z,8.37
2022-11-09T18:34:59.117Z,8.36
2022-11-09T18:40:26.927Z,8.37
2022-11-09T18:45:58.021Z,8.39
2022-11-09T18:51:23.964Z,8.39
2022-11-09T18:56:54.536Z,8.34
2022-11-09T19:02:20.097Z,8.31
2022-11-09T19:07:45.474Z,8.33
2022-11-09T19:13:13.879Z,8.29
2022-11-09T19:18:39.703Z,8.32
2022-11-09T19:24:06.696Z,8.26
2022-11-09T19:29:34.756Z,8.28
2022-11-09T19:35:01.532Z,8.25
2022-11-09T19:40:27.604Z,8.25
2022-11-09T19:45:55.202Z,8.24
2022-11-09T19:51:21.904Z,8.21
2022-11-09T19:56:48.833Z,8.21
2022-11-09T20:02:18.271Z,8.21
2022-11-09T20:07:44.207Z,8.18
2022-11-09T20:13:12.951Z,8.13
2022-11-09T20:18:41.103Z,8.07
2022-11-09T20:24:09.365Z,8.03
2022-11-09T20:29:37.844Z,8.00
2022-11-09T20:35:05.163Z,8.00
2022-11-09T20:40:32.054Z,7.96
2022-11-09T20:45:58.875Z,7.89
2022-11-09T20:51:28.480Z,7.88
2022-11-09T20:56:55.128Z,7.83
2022-11-09T21:02:21.048Z,7.81
2022-11-09T21:07:48.453Z,7.77
2022-11-09T21:13:13.831Z,7.68
2022-11-09T21:18:38.711Z,7.69
2022-11-09T21:24:23.398Z,7.68
2022-11-09T21:29:54.791Z,7.63
2022-11-09T21:35:20.044Z,7.65
2022-11-09T21:40:46.785Z,7.67
2022-11-09T21:46:11.605Z,7.67
2022-11-09T21:51:38.015Z,7.56
2022-11-09T21:57:04.632Z,7.44
2022-11-09T22:02:29.822Z,7.41
2022-11-09T22:07:55.673Z,7.41
2022-11-09T22:13:39.443Z,7.32
2022-11-09T22:19:22.951Z,7.32
2022-11-09T22:24:47.659Z,7.31
2022-11-09T22:30:14.956Z,7.25
2022-11-09T22:35:39.786Z,7.28
2022-11-09T22:41:06.921Z,7.30
2022-11-09T22:46:33.206Z,7.25
2022-11-09T22:51:58.016Z,7.25
2022-11-09T22:57:22.717Z,7.20
2022-11-09T23:02:48.968Z,7.20
2022-11-09T23:08:14.266Z,7.17
2022-11-09T23:13:39.395Z,7.19
2022-11-09T23:19:05.617Z,7.13
2022-11-09T23:24:47.446Z,7.16
2022-11-09T23:30:14.438Z,7.04
2022-11-09T23:35:40.894Z,6.98
2022-11-09T23:41:07.185Z,7.03
2022-11-09T23:46:31.642Z,7.02
2022-11-09T23:51:57.648Z,6.97
2022-11-09T23:57:22.702Z,6.98
